createdAt,value
2019-02-04T00:00:47.816Z,4.73
2019-02-04T00:05:52.750Z,4.40
2019-02-04T00:10:59.325Z,4.67
2019-02-04T00:16:04.468Z,4.30
2019-02-04T00:21:09.403Z,4.85
2019-02-04T00:26:14.452Z,4.90
2019-02-04T00:31:19.227Z,4.37
2019-02-04T00:36:23.918Z,5.10
2019-02-04T00:41:28.608Z,4.70
2019-02-04T00:46:33.653Z,4.60
2019-02-04T00:51:38.676Z,4.80
2019-02-04T00:56:43.433Z,5.67
2019-02-04T01:01:48.188Z,5.43
2019-02-04T01:06:53.015Z,5.47
2019-02-04T01:11:58.683Z,5.97
2019-02-04T01:17:03.886Z,5.70
2019-02-04T01:22:08.695Z,6.40
2019-02-04T01:27:13.409Z,5.95
2019-02-04T01:32:18.385Z,7.08
2019-02-04T01:37:23.197Z,6.43
2019-02-04T01:42:27.891Z,7.87
2019-02-04T01:47:32.662Z,7.50
2019-02-04T01:52:37.411Z,7.33
2019-02-04T01:57:42.225Z,8.00
2019-02-04T02:02:46.917Z,7.30
2019-02-04T02:07:52.364Z,7.80
2019-02-04T02:12:57.309Z,8.00
2019-02-04T02:18:02.083Z,9.00
2019-02-04T02:23:06.868Z,8.90
2019-02-04T02:28:11.584Z,8.60
2019-02-04T02:38:30.692Z,9.10
2019-02-04T02:43:35.526Z,8.00
2019-02-04T02:48:40.211Z,8.57
2019-02-04T02:53:45.884Z,8.87
2019-02-04T02:58:50.787Z,9.53
2019-02-04T03:03:55.842Z,9.00
2019-02-04T03:09:00.646Z,8.67
2019-02-04T03:14:06.434Z,9.10
2019-02-04T03:19:11.152Z,9.03
2019-02-04T03:24:15.830Z,8.80
2019-02-04T03:29:20.589Z,8.33
2019-02-04T03:34:46.787Z,8.35
2019-02-04T03:39:51.913Z,8.57
2019-02-04T03:44:56.756Z,8.33
2019-02-04T03:50:01.913Z,8.20
2019-02-04T03:55:08.305Z,7.90
2019-02-04T04:00:18.370Z,8.33
2019-02-04T04:05:23.299Z,8.48
2019-02-04T04:10:28.139Z,7.83
2019-02-04T04:15:33.217Z,7.97
2019-02-04T04:20:38.436Z,7.97
2019-02-04T04:25:43.175Z,8.33
2019-02-04T04:30:48.023Z,8.23
2019-02-04T04:35:52.733Z,7.83
2019-02-04T04:40:57.407Z,7.80
2019-02-04T04:46:02.087Z,7.53
2019-02-04T04:51:06.751Z,6.80
2019-02-04T04:56:11.740Z,7.12
2019-02-04T05:01:16.563Z,7.27
2019-02-04T05:06:21.236Z,7.42
2019-02-04T05:11:25.920Z,6.80
2019-02-04T05:16:30.716Z,6.93
2019-02-04T05:21:35.483Z,6.90
2019-02-04T05:26:40.221Z,7.07
2019-02-04T05:31:44.924Z,7.47
2019-02-04T05:36:49.608Z,7.03
2019-02-04T05:41:54.585Z,7.33
2019-02-04T05:46:59.369Z,7.37
2019-02-04T05:52:04.261Z,6.87
2019-02-04T05:57:08.992Z,6.87
2019-02-04T06:02:13.850Z,6.83
2019-02-04T06:07:18.623Z,6.80
2019-02-04T06:12:23.383Z,6.67
2019-02-04T06:17:28.464Z,7.33
2019-02-04T06:22:33.227Z,8.00
2019-02-04T06:27:38.092Z,6.83
2019-02-04T06:32:43.012Z,7.13
2019-02-04T06:37:47.313Z,7.13
2019-02-04T06:42:52.486Z,8.00
2019-02-04T06:47:57.227Z,7.67
2019-02-04T06:53:02.082Z,7.20
2019-02-04T06:58:07.122Z,7.93
2019-02-04T07:03:11.841Z,7.20
2019-02-04T07:08:16.859Z,8.10
2019-02-04T07:13:21.539Z,7.75
2019-02-04T07:18:26.231Z,7.87
2019-02-04T07:23:30.915Z,8.00
2019-02-04T07:28:35.978Z,8.23
2019-02-04T07:33:40.752Z,9.43
2019-02-04T07:38:45.431Z,9.10
2019-02-04T07:43:50.412Z,8.67
2019-02-04T07:48:55.117Z,9.00
2019-02-04T07:53:59.759Z,10.37
2019-02-04T07:59:04.548Z,10.25
2019-02-04T08:04:09.577Z,10.37
2019-02-04T08:09:14.620Z,9.05
2019-02-04T08:14:19.813Z,9.93
2019-02-04T08:19:24.588Z,9.77
2019-02-04T08:24:29.372Z,10.00
2019-02-04T08:29:34.281Z,9.83
2019-02-04T08:34:39.050Z,10.33
2019-02-04T08:39:44.780Z,9.53
2019-02-04T08:44:49.546Z,10.00
2019-02-04T08:49:58.516Z,9.70
2019-02-04T08:55:01.020Z,9.30
2019-02-04T09:00:06.548Z,9.40
2019-02-04T09:05:12.590Z,8.90
2019-02-04T09:10:23.853Z,8.87
2019-02-04T09:15:29.184Z,9.50
2019-02-04T09:20:33.976Z,9.20
2019-02-04T09:25:38.801Z,8.23
2019-02-04T09:30:43.892Z,9.00
2019-02-04T09:35:48.663Z,9.10
2019-02-04T09:40:53.569Z,8.50
2019-02-04T09:45:58.340Z,7.67
2019-02-04T09:51:03.497Z,7.57
2019-02-04T09:56:08.784Z,6.97
2019-02-04T10:01:13.677Z,6.70
2019-02-04T10:06:18.544Z,7.00
2019-02-04T10:11:23.789Z,7.70
2019-02-04T10:16:28.878Z,6.47
2019-02-04T10:21:33.636Z,5.80
2019-02-04T10:26:38.777Z,5.90
2019-02-04T10:31:43.536Z,6.30
2019-02-04T10:36:48.347Z,6.87
2019-02-04T10:41:53.208Z,6.27
2019-02-04T10:46:57.954Z,5.73
2019-02-04T10:52:02.736Z,5.70
2019-02-04T10:57:07.443Z,4.80
2019-02-04T11:02:12.721Z,5.03
2019-02-04T11:07:17.534Z,4.45
2019-02-04T11:12:23.243Z,3.87
2019-02-04T11:17:28.222Z,4.30
2019-02-04T11:22:33.002Z,3.87
2019-02-04T11:27:37.987Z,4.23
2019-02-04T11:32:42.820Z,3.50
2019-02-04T11:37:48.134Z,3.07
2019-02-04T11:42:52.982Z,3.20
2019-02-04T11:47:57.879Z,3.40
2019-02-04T11:53:02.728Z,3.27
2019-02-04T11:58:08.400Z,2.70
2019-02-04T12:03:14.950Z,2.70
2019-02-04T12:08:20.214Z,2.50
2019-02-04T12:13:25.096Z,2.60
2019-02-04T12:18:29.994Z,2.20
2019-02-04T12:23:34.940Z,3.43
2019-02-04T12:28:39.896Z,2.23
2019-02-04T12:33:44.773Z,2.80
2019-02-04T12:38:49.756Z,2.77
2019-02-04T12:43:54.571Z,3.00
2019-02-04T12:48:59.445Z,2.40
2019-02-04T12:54:04.457Z,2.67
2019-02-04T12:59:09.355Z,2.60
2019-02-04T13:04:14.037Z,2.83
2019-02-04T13:09:18.855Z,2.40
2019-02-04T13:14:23.815Z,2.40
2019-02-04T13:19:28.807Z,2.77
2019-02-04T13:24:33.569Z,2.63
2019-02-04T13:29:38.381Z,2.90
2019-02-04T13:34:43.631Z,2.80
2019-02-04T13:39:48.427Z,2.90
2019-02-04T13:44:53.588Z,4.23
2019-02-04T13:49:58.275Z,3.97
2019-02-04T13:55:03.132Z,4.93
2019-02-04T14:00:11.484Z,4.80
2019-02-04T14:05:16.598Z,5.27
2019-02-04T14:10:35.614Z,5.37
2019-02-04T14:15:41.168Z,5.40
2019-02-04T14:20:45.982Z,5.97
2019-02-04T14:25:50.787Z,5.47
2019-02-04T14:30:55.671Z,5.83
2019-02-04T14:36:00.423Z,5.77
2019-02-04T14:41:05.311Z,5.90
2019-02-04T14:47:03.473Z,6.00
2019-02-04T14:52:46.854Z,7.70
2019-02-04T14:58:21.660Z,7.37
2019-02-04T15:03:38.548Z,7.27
2019-02-04T15:09:01.951Z,7.30
2019-02-04T15:14:55.146Z,6.70
2019-02-04T15:20:40.450Z,7.20
2019-02-04T15:26:28.498Z,6.87
2019-02-04T15:32:22.531Z,7.83
2019-02-04T15:38:13.307Z,7.10
2019-02-04T15:44:10.496Z,7.60
2019-02-04T15:49:54.652Z,8.03
2019-02-04T15:54:59.346Z,8.30
2019-02-04T16:00:05.482Z,8.97
2019-02-04T16:05:10.683Z,9.37
2019-02-04T16:10:17.341Z,8.80
2019-02-04T16:15:22.239Z,9.63
2019-02-04T16:20:27.111Z,9.57
2019-02-04T16:25:32.045Z,9.17
2019-02-04T16:30:36.878Z,9.03
2019-02-04T16:35:41.548Z,9.30
2019-02-04T16:40:46.314Z,10.17
2019-02-04T16:45:51.525Z,8.90
2019-02-04T16:51:03.542Z,8.93
2019-02-04T16:56:03.090Z,9.43
2019-02-04T17:01:08.359Z,9.13
2019-02-04T17:06:13.487Z,8.93
2019-02-04T17:11:18.261Z,9.43
2019-02-04T17:16:23.079Z,9.83
2019-02-04T17:21:28.247Z,9.50
2019-02-04T17:26:32.954Z,9.00
2019-02-04T17:31:37.776Z,9.13
2019-02-04T17:36:42.614Z,10.03
2019-02-04T17:41:47.554Z,9.07
2019-02-04T17:46:52.342Z,9.10
2019-02-04T17:51:57.104Z,9.23
2019-02-04T17:57:02.312Z,9.30
2019-02-04T18:02:07.279Z,8.30
2019-02-04T18:07:12.232Z,9.40
2019-02-04T18:12:16.980Z,8.60
2019-02-04T18:17:21.730Z,8.75
2019-02-04T18:22:26.500Z,8.80
2019-02-04T18:27:31.225Z,8.80
2019-02-04T18:32:36.014Z,8.53
2019-02-04T18:37:41.206Z,8.33
2019-02-04T18:42:46.209Z,8.70
2019-02-04T18:47:51.436Z,8.00
2019-02-04T18:52:57.437Z,8.00
2019-02-04T18:58:02.280Z,8.37
2019-02-04T19:03:16.877Z,8.70
2019-02-04T19:08:14.536Z,8.83
2019-02-04T19:13:19.363Z,8.63
2019-02-04T19:18:24.037Z,8.17
2019-02-04T19:23:28.739Z,8.00
2019-02-04T19:28:33.515Z,8.47
2019-02-04T19:33:39.226Z,8.10
2019-02-04T19:38:43.937Z,8.77
2019-02-04T19:43:48.687Z,7.90
2019-02-04T19:48:53.391Z,8.50
2019-02-04T19:53:58.207Z,7.83
2019-02-04T19:59:03.217Z,8.63
2019-02-04T20:04:08.535Z,8.17
2019-02-04T20:09:13.565Z,8.25
2019-02-04T20:14:18.377Z,8.50
2019-02-04T20:19:23.194Z,7.67
2019-02-04T20:24:33.304Z,7.93
2019-02-04T20:29:34.376Z,8.30
2019-02-04T20:34:40.426Z,7.57
2019-02-04T20:39:45.223Z,8.60
2019-02-04T20:44:50.174Z,8.03
2019-02-04T20:49:55.929Z,8.37
2019-02-04T20:55:00.702Z,8.97
2019-02-04T21:00:09.291Z,8.40
2019-02-04T21:05:15.280Z,8.50
2019-02-04T21:10:21.510Z,8.45
2019-02-04T21:15:26.429Z,8.40
2019-02-04T21:20:31.316Z,7.90
2019-02-04T21:25:36.181Z,8.27
2019-02-04T21:30:42.802Z,7.77
2019-02-04T21:35:47.647Z,8.23
2019-02-04T21:40:52.628Z,7.80
2019-02-04T21:45:57.408Z,7.90
2019-02-04T21:51:02.194Z,7.20
2019-02-04T21:56:06.946Z,7.17
2019-02-04T22:01:11.717Z,6.90
2019-02-04T22:06:16.454Z,7.03
2019-02-04T22:11:21.728Z,6.47
2019-02-04T22:16:26.477Z,6.30
2019-02-04T22:21:31.816Z,6.63
2019-02-04T22:26:37.324Z,5.83
2019-02-04T22:31:42.365Z,6.20
2019-02-04T22:36:47.367Z,6.50
2019-02-04T22:41:52.176Z,6.73
2019-02-04T22:46:56.909Z,6.53
2019-02-04T22:52:01.655Z,5.40
2019-02-04T22:57:06.704Z,6.27
2019-02-04T23:02:11.680Z,5.85
2019-02-04T23:07:16.481Z,5.95
2019-02-04T23:12:22.223Z,5.47
2019-02-04T23:17:26.917Z,6.50
2019-02-04T23:22:31.691Z,5.77
2019-02-04T23:27:36.883Z,5.87
2019-02-04T23:32:41.866Z,5.80
2019-02-04T23:37:46.671Z,5.53
2019-02-04T23:42:51.381Z,5.43
2019-02-04T23:47:56.124Z,6.00
2019-02-04T23:53:00.958Z,5.63
2019-02-04T23:58:09.288Z,5.57
